CheckWX is a tool to help pilots better visualize weather data.  It is not intended as a substitute for an official pre-flight weather briefing.

16:50:32 UTC

KAVL TAF
Asheville Regional Airport
Asheville, North Carolina, USA
KAVL 071137Z 0712/0812 VRB02KT P6SM FEW200 FM071800 VRB02KT P6SM SCT030 FM072100 14005KT P6SM BKN035 FM080900 15004KT P6SM BKN028

Dec-7@
12:00 UTC

Dec-7 @ 12:00 UTC

Dec-7@
18:00 UTC

Dec-7 @ 18:00 UTC

KAVL 071137Z 0712/0812 VRB02KT P6SM FEW200
Wind
  • Variable at 2 KTS
Cloud Levels
  • Few at 20,000' AGL

Dec-7@
18:00 UTC

Dec-7 @ 18:00 UTC

Dec-7@
21:00 UTC

Dec-7 @ 21:00 UTC

FM071800 VRB02KT P6SM SCT030

From

From Standard forecast or significant change

Wind
  • Variable at 2 KTS
Cloud Levels
  • Scattered at 3,000' AGL

Dec-7@
21:00 UTC

Dec-7 @ 21:00 UTC

Dec-8@
09:00 UTC

Dec-8 @ 09:00 UTC

FM072100 14005KT P6SM BKN035

From

From Standard forecast or significant change

Wind
  • 140° at 5 KTS
Cloud Levels
  • Broken at 3,500' AGL

Dec-8@
09:00 UTC

Dec-8 @ 09:00 UTC

Dec-8@
12:00 UTC

Dec-8 @ 12:00 UTC

FM080900 15004KT P6SM BKN028

From

From Standard forecast or significant change

Wind
  • 150° at 4 KTS
Cloud Levels
  • Broken at 2,800' AGL